Time;durP1;ratioP1;P1;durP2;ratioP2;P2;SDS_P1;SDS_P2;PMS_P1;PMS_P2;Temp;Humidity;BMP_temperature;BMP_pressure;BME280_temperature;BME280_humidity;BME280_pressure;Samples;Min_cycle;Max_cycle;Signal;HPM_P1;HPM_P2
2021/06/26 00:00:16;;;;;;;;;;;16.00;99.90;;;;;;5029204;28;21473;-49
2021/06/26 00:02:42;;;;;;;;;;;16.00;99.90;;;;;;5030319;28;19995;-52
2021/06/26 00:05:08;;;;;;;;;;;16.00;99.90;;;;;;5041988;28;19909;-50
2021/06/26 00:07:34;;;;;;;;;;;16.00;99.90;;;;;;5021308;28;20395;-50
2021/06/26 00:09:59;;;;;;;;;;;16.00;99.90;;;;;;5036670;28;19933;-54
2021/06/26 00:12:24;;;;;;;;;;;16.00;99.90;;;;;;5030070;28;20367;-51
2021/06/26 00:14:50;;;;;;;;;;;16.00;99.90;;;;;;5035037;28;20003;-55
2021/06/26 00:17:16;;;;;;;;;;;15.90;99.90;;;;;;5028604;28;19963;-50
2021/06/26 00:19:41;;;;;;;;;;;15.90;99.90;;;;;;5033325;28;19963;-55
2021/06/26 00:22:07;;;;;;;;;;;15.90;99.90;;;;;;5040253;28;19962;-50
2021/06/26 00:24:32;;;;;;;;;;;15.90;99.90;;;;;;5031371;28;19909;-54
2021/06/26 00:26:58;;;;;;;;;;;15.90;99.90;;;;;;5037635;28;19910;-53
2021/06/26 00:29:23;;;;;;;;;;;15.80;99.90;;;;;;5029750;28;20379;-53
2021/06/26 00:31:49;;;;;;;;;;;15.80;99.90;;;;;;5021464;28;19910;-48
2021/06/26 00:34:14;;;;;;;;;;;15.70;99.90;;;;;;5028345;28;20314;-54
2021/06/26 00:36:40;;;;;;;;;;;15.70;99.90;;;;;;5033310;28;20388;-56
2021/06/26 00:39:05;;;;;;;;;;;15.70;99.90;;;;;;5039723;28;19947;-52
2021/06/26 00:41:31;;;;;;;;;;;15.70;99.90;;;;;;5031555;28;20294;-50
2021/06/26 00:43:56;;;;;;;;;;;15.70;99.90;;;;;;5021916;28;20363;-48
2021/06/26 00:46:22;;;;;;;;;;;15.70;99.90;;;;;;5029454;28;19909;-53
2021/06/26 00:48:47;;;;;;;;;;;15.70;99.90;;;;;;5034084;28;19920;-51
2021/06/26 00:51:13;;;;;;;;;;;15.70;99.90;;;;;;5010122;28;20298;-48
2021/06/26 00:53:39;;;;;;;;;;;15.80;99.90;;;;;;5032813;28;19916;-52
2021/06/26 00:56:05;;;;;;;;;;;15.70;99.90;;;;;;5039406;28;20350;-54
2021/06/26 00:58:30;;;;;;;;;;;15.80;99.90;;;;;;5030001;28;19913;-52
2021/06/26 01:00:56;;;;;;;;;;;15.70;99.90;;;;;;5034543;28;19978;-50
2021/06/26 01:03:22;;;;;;;;;;;15.70;99.90;;;;;;5031289;28;19965;-55
2021/06/26 01:05:48;;;;;;;;;;;15.70;99.90;;;;;;5036043;28;20275;-57
2021/06/26 01:08:13;;;;;;;;;;;15.70;99.90;;;;;;5032282;28;19913;-53
2021/06/26 01:10:39;;;;;;;;;;;15.60;99.90;;;;;;5036116;28;19932;-54
2021/06/26 01:13:05;;;;;;;;;;;15.60;99.90;;;;;;5027586;28;20374;-53
2021/06/26 01:15:30;;;;;;;;;;;15.50;99.90;;;;;;5036395;28;19924;-48
2021/06/26 01:17:56;;;;;;;;;;;15.60;99.90;;;;;;5027173;28;19909;-54
2021/06/26 01:20:21;;;;;;;;;;;15.50;99.90;;;;;;5037225;28;19963;-50
2021/06/26 01:22:51;;;;;;;;;;;15.60;99.90;;;;;;5035800;28;19909;-51
2021/06/26 01:25:22;;;;;;;;;;;15.60;99.90;;;;;;5032401;28;20001;-52
2021/06/26 01:27:48;;;;;;;;;;;15.60;99.90;;;;;;5035070;28;19952;-52
2021/06/26 01:30:14;;;;;;;;;;;15.50;99.90;;;;;;5033010;28;19959;-55
2021/06/26 01:32:40;;;;;;;;;;;15.50;99.90;;;;;;5037273;28;19915;-57
2021/06/26 01:35:06;;;;;;;;;;;15.50;99.90;;;;;;5029059;28;19910;-52
2021/06/26 01:37:31;;;;;;;;;;;15.50;99.90;;;;;;5043353;28;19913;-57
2021/06/26 01:39:57;;;;;;;;;;;15.50;99.90;;;;;;5036896;28;20363;-49
2021/06/26 01:42:23;;;;;;;;;;;15.40;99.90;;;;;;5037726;28;20279;-51
2021/06/26 01:44:48;;;;;;;;;;;15.40;99.90;;;;;;5038213;28;19979;-55
2021/06/26 01:47:14;;;;;;;;;;;15.50;99.90;;;;;;5031859;28;19917;-56
2021/06/26 01:49:40;;;;;;;;;;;15.40;99.90;;;;;;5038616;28;20401;-55
2021/06/26 01:52:07;;;;;;;;;;;15.40;99.90;;;;;;5028584;28;19913;-51
2021/06/26 01:54:33;;;;;;;;;;;15.30;99.90;;;;;;5041336;28;19916;-50
2021/06/26 01:56:58;;;;;;;;;;;15.30;99.90;;;;;;5039026;28;19913;-55
2021/06/26 01:59:24;;;;;;;;;;;15.30;99.90;;;;;;5034822;28;19924;-53
2021/06/26 02:01:49;;;;;;;;;;;15.20;99.90;;;;;;5033080;28;19961;-53
2021/06/26 02:04:15;;;;;;;;;;;15.20;99.90;;;;;;5025042;28;20368;-53
2021/06/26 02:06:40;;;;;;;;;;;15.10;99.90;;;;;;5031064;28;19951;-55
2021/06/26 02:09:07;;;;;;;;;;;15.10;99.90;;;;;;5027549;28;19917;-51
2021/06/26 02:11:33;;;;;;;;;;;15.00;99.90;;;;;;5030312;28;20459;-53
2021/06/26 02:13:59;;;;;;;;;;;15.00;99.90;;;;;;5032178;28;19909;-52
2021/06/26 02:16:24;;;;;;;;;;;15.00;99.90;;;;;;5029105;28;20261;-48
2021/06/26 02:18:50;;;;;;;;;;;14.90;99.90;;;;;;5031500;28;19931;-57
2021/06/26 02:21:15;;;;;;;;;;;15.00;99.90;;;;;;5028214;28;20537;-50
2021/06/26 02:23:41;;;;;;;;;;;14.90;99.90;;;;;;5030528;28;20355;-54
2021/06/26 02:26:06;;;;;;;;;;;14.80;99.90;;;;;;5026904;28;19966;-49
2021/06/26 02:28:32;;;;;;;;;;;14.80;99.90;;;;;;5029647;28;19935;-51
2021/06/26 02:30:58;;;;;;;;;;;14.70;99.90;;;;;;5031547;28;19916;-50
2021/06/26 02:33:23;;;;;;;;;;;14.70;99.90;;;;;;5028403;28;20004;-56
2021/06/26 02:35:49;;;;;;;;;;;14.60;99.90;;;;;;5030359;28;19909;-49
2021/06/26 02:38:14;;;;;;;;;;;14.60;99.90;;;;;;5027067;28;20395;-50
2021/06/26 02:40:39;;;;;;;;;;;14.50;99.90;;;;;;5029812;28;19913;-52
2021/06/26 02:43:05;;;;;;;;;;;14.50;99.90;;;;;;5031192;28;19939;-48
2021/06/26 02:45:30;;;;;;;;;;;14.50;99.90;;;;;;5028340;28;20004;-52
2021/06/26 02:47:56;;;;;;;;;;;14.50;99.90;;;;;;5031092;28;20466;-54
2021/06/26 02:50:21;;;;;;;;;;;14.40;99.90;;;;;;5027738;28;19940;-55
2021/06/26 02:52:47;;;;;;;;;;;14.50;99.90;;;;;;5012204;28;19914;-49
2021/06/26 02:55:12;;;;;;;;;;;14.50;99.90;;;;;;5026928;28;19967;-50
2021/06/26 02:57:38;;;;;;;;;;;14.50;99.90;;;;;;5029338;28;19916;-54
2021/06/26 03:00:05;;;;;;;;;;;14.50;99.90;;;;;;5031352;28;19916;-50
2021/06/26 03:02:30;;;;;;;;;;;14.50;99.90;;;;;;5028476;28;20280;-51
2021/06/26 03:04:56;;;;;;;;;;;14.50;99.90;;;;;;5029325;28;19916;-54
2021/06/26 03:07:21;;;;;;;;;;;14.50;99.90;;;;;;5026459;28;19909;-49
2021/06/26 03:09:47;;;;;;;;;;;14.50;99.90;;;;;;5028417;28;20305;-51
2021/06/26 03:12:12;;;;;;;;;;;14.50;99.90;;;;;;5030849;28;20403;-58
2021/06/26 03:14:38;;;;;;;;;;;14.60;99.90;;;;;;5027206;28;19987;-51
2021/06/26 03:17:03;;;;;;;;;;;14.60;99.90;;;;;;5030054;28;19916;-51
2021/06/26 03:19:29;;;;;;;;;;;14.50;99.90;;;;;;5026812;28;19952;-50
2021/06/26 03:21:54;;;;;;;;;;;14.60;99.90;;;;;;5029055;28;19916;-52
2021/06/26 03:24:20;;;;;;;;;;;14.60;99.90;;;;;;5025960;28;20295;-49
2021/06/26 03:26:45;;;;;;;;;;;14.60;99.90;;;;;;5015680;28;19958;-48
2021/06/26 03:29:11;;;;;;;;;;;14.60;99.90;;;;;;5030430;28;20298;-57
2021/06/26 03:31:37;;;;;;;;;;;14.60;99.90;;;;;;5027696;28;19916;-53
2021/06/26 03:34:02;;;;;;;;;;;14.60;99.90;;;;;;5018881;28;20438;-49
2021/06/26 03:36:28;;;;;;;;;;;14.60;99.90;;;;;;5026201;28;19909;-50
2021/06/26 03:38:54;;;;;;;;;;;14.70;99.90;;;;;;5028737;28;19932;-50
2021/06/26 03:41:24;;;;;;;;;;;14.70;99.90;;;;;;5025610;28;19915;-50
2021/06/26 03:43:50;;;;;;;;;;;14.70;99.90;;;;;;5028025;28;20311;-54
2021/06/26 03:46:16;;;;;;;;;;;14.70;99.90;;;;;;5030112;28;19942;-49
2021/06/26 03:48:42;;;;;;;;;;;14.70;99.90;;;;;;5026582;28;19913;-52
2021/06/26 03:51:07;;;;;;;;;;;14.80;99.90;;;;;;5029199;28;19909;-49
2021/06/26 03:53:33;;;;;;;;;;;14.80;99.90;;;;;;5026291;28;19963;-51
2021/06/26 03:55:58;;;;;;;;;;;14.80;99.90;;;;;;5027833;28;20004;-49
2021/06/26 03:58:24;;;;;;;;;;;14.80;99.90;;;;;;5025461;28;19909;-50
2021/06/26 04:00:50;;;;;;;;;;;14.90;99.90;;;;;;5027668;28;19909;-57
2021/06/26 04:03:16;;;;;;;;;;;14.90;99.90;;;;;;5028251;28;20391;-57
2021/06/26 04:05:42;;;;;;;;;;;14.90;99.90;;;;;;5030523;28;19905;-51
2021/06/26 04:08:08;;;;;;;;;;;15.00;99.90;;;;;;5007871;28;19913;-48
2021/06/26 04:10:33;;;;;;;;;;;15.00;99.90;;;;;;5029569;28;19924;-49
2021/06/26 04:12:59;;;;;;;;;;;15.00;99.90;;;;;;5029322;28;19909;-50
2021/06/26 04:15:24;;;;;;;;;;;15.10;99.90;;;;;;5026404;28;19932;-54
2021/06/26 04:17:50;;;;;;;;;;;15.10;99.90;;;;;;5030499;28;19960;-55
2021/06/26 04:20:15;;;;;;;;;;;15.20;99.90;;;;;;5009603;28;19910;-50
2021/06/26 04:22:44;;;;;;;;;;;15.20;99.90;;;;;;5030253;28;19909;-53
2021/06/26 04:25:10;;;;;;;;;;;15.20;99.90;;;;;;5007010;28;19988;-48
2021/06/26 04:27:36;;;;;;;;;;;15.20;99.90;;;;;;5029863;28;20376;-50
2021/06/26 04:30:02;;;;;;;;;;;15.20;99.90;;;;;;5028889;28;20000;-50
2021/06/26 04:32:28;;;;;;;;;;;15.20;99.90;;;;;;5026976;28;19920;-50
2021/06/26 04:34:53;;;;;;;;;;;15.20;99.90;;;;;;5029623;28;19909;-50
2021/06/26 04:37:19;;;;;;;;;;;15.20;99.90;;;;;;5024162;28;19992;-52
2021/06/26 04:39:44;;;;;;;;;;;15.20;99.90;;;;;;5030415;28;19966;-48
2021/06/26 04:42:10;;;;;;;;;;;15.20;99.90;;;;;;5022059;28;19925;-54
2021/06/26 04:44:35;;;;;;;;;;;15.20;99.90;;;;;;5022426;28;19916;-53
2021/06/26 04:47:01;;;;;;;;;;;15.20;99.90;;;;;;5030568;28;19909;-50
2021/06/26 04:49:26;;;;;;;;;;;15.30;99.90;;;;;;5026392;28;19924;-52
2021/06/26 04:51:52;;;;;;;;;;;15.30;99.90;;;;;;5029819;28;19909;-55
2021/06/26 04:54:17;;;;;;;;;;;15.30;99.90;;;;;;5023538;28;19910;-53
2021/06/26 04:56:43;;;;;;;;;;;15.30;99.90;;;;;;5030068;28;19936;-52
2021/06/26 04:59:08;;;;;;;;;;;15.40;99.90;;;;;;5021833;28;19927;-51
2021/06/26 05:01:34;;;;;;;;;;;15.40;99.90;;;;;;5028926;28;19909;-54
2021/06/26 05:04:00;;;;;;;;;;;15.50;99.90;;;;;;5028160;28;20425;-49
2021/06/26 05:06:25;;;;;;;;;;;15.50;99.90;;;;;;5025043;28;19913;-49
2021/06/26 05:08:51;;;;;;;;;;;15.50;99.90;;;;;;5030141;28;19917;-50
2021/06/26 05:11:16;;;;;;;;;;;15.50;99.90;;;;;;5061723;22;19925;-55
2021/06/26 05:13:42;;;;;;;;;;;15.60;99.90;;;;;;5044510;28;19987;-57
2021/06/26 05:16:07;;;;;;;;;;;15.60;99.90;;;;;;5044248;28;20032;-57
2021/06/26 05:18:33;;;;;;;;;;;15.70;99.90;;;;;;5046456;28;20482;-56
2021/06/26 05:20:58;;;;;;;;;;;15.80;99.90;;;;;;5043100;28;19909;-56
2021/06/26 05:23:24;;;;;;;;;;;15.80;99.90;;;;;;5030913;28;20514;-58
2021/06/26 05:25:49;;;;;;;;;;;15.90;99.90;;;;;;5041719;28;19916;-60
2021/06/26 05:28:15;;;;;;;;;;;16.00;99.90;;;;;;5029449;28;19964;-57
2021/06/26 05:30:40;;;;;;;;;;;16.10;99.90;;;;;;5044738;28;19953;-58
2021/06/26 05:33:06;;;;;;;;;;;16.10;99.90;;;;;;5043914;28;19909;-58
2021/06/26 05:35:32;;;;;;;;;;;16.10;99.90;;;;;;5045915;28;19909;-58
2021/06/26 05:37:57;;;;;;;;;;;16.20;99.90;;;;;;5025144;28;19996;-55
2021/06/26 05:40:23;;;;;;;;;;;16.30;99.90;;;;;;5048485;28;19916;-59
2021/06/26 05:42:49;;;;;;;;;;;16.30;99.90;;;;;;5041494;28;20262;-55
2021/06/26 05:45:14;;;;;;;;;;;16.40;99.90;;;;;;5044742;28;19917;-56
2021/06/26 05:47:40;;;;;;;;;;;16.50;99.90;;;;;;5044459;28;19909;-57
2021/06/26 05:50:05;;;;;;;;;;;16.60;99.90;;;;;;5043573;28;20376;-58
2021/06/26 05:52:31;;;;;;;;;;;16.70;99.90;;;;;;5046324;28;19949;-59
2021/06/26 05:54:56;;;;;;;;;;;16.80;99.90;;;;;;5042340;28;20004;-57
2021/06/26 05:57:23;;;;;;;;;;;16.90;99.90;;;;;;5048745;28;19909;-58
2021/06/26 05:59:49;;;;;;;;;;;17.00;99.90;;;;;;5041274;28;19909;-55
2021/06/26 06:02:14;;;;;;;;;;;17.10;99.90;;;;;;5044601;28;20333;-55
2021/06/26 06:04:41;;;;;;;;;;;17.20;99.90;;;;;;5044216;28;19963;-58
2021/06/26 06:07:07;;;;;;;;;;;17.30;99.90;;;;;;5044261;28;19909;-55
2021/06/26 06:09:33;;;;;;;;;;;17.40;99.90;;;;;;5044282;28;20328;-60
2021/06/26 06:11:58;;;;;;;;;;;17.40;99.90;;;;;;5042437;28;19917;-59
2021/06/26 06:14:24;;;;;;;;;;;17.50;99.90;;;;;;5044532;28;19908;-58
2021/06/26 06:16:49;;;;;;;;;;;17.70;99.90;;;;;;5043097;28;19908;-56
2021/06/26 06:19:15;;;;;;;;;;;17.80;99.90;;;;;;5032534;28;20003;-57
2021/06/26 06:21:40;;;;;;;;;;;18.00;99.90;;;;;;5044720;28;20303;-60
2021/06/26 06:24:06;;;;;;;;;;;18.00;99.90;;;;;;5044094;28;19909;-59
2021/06/26 06:26:31;;;;;;;;;;;18.20;99.90;;;;;;5044494;28;20401;-60
2021/06/26 06:28:57;;;;;;;;;;;18.30;99.90;;;;;;5024544;28;19913;-55
2021/06/26 06:31:22;;;;;;;;;;;18.40;99.90;;;;;;5044315;28;19916;-60
2021/06/26 06:33:48;;;;;;;;;;;18.60;99.90;;;;;;5043219;28;19905;-59
2021/06/26 06:36:13;;;;;;;;;;;18.80;99.90;;;;;;5025889;28;19908;-59
2021/06/26 06:38:38;;;;;;;;;;;18.90;99.90;;;;;;5044171;28;19944;-55
2021/06/26 06:41:04;;;;;;;;;;;19.10;99.90;;;;;;5043605;28;20295;-57
2021/06/26 06:43:30;;;;;;;;;;;19.30;99.90;;;;;;5043691;28;19909;-58
2021/06/26 06:45:55;;;;;;;;;;;19.50;99.90;;;;;;5041552;28;19992;-57
2021/06/26 06:48:21;;;;;;;;;;;19.70;99.90;;;;;;5043888;28;19917;-57
2021/06/26 06:50:46;;;;;;;;;;;19.80;99.90;;;;;;5024972;28;19919;-57
2021/06/26 06:53:11;;;;;;;;;;;20.00;99.90;;;;;;5025365;28;20308;-56
2021/06/26 06:55:37;;;;;;;;;;;20.20;99.90;;;;;;5043877;28;19909;-59
2021/06/26 06:58:02;;;;;;;;;;;20.30;99.90;;;;;;5025658;28;19916;-55
2021/06/26 07:00:28;;;;;;;;;;;20.40;99.90;;;;;;5043529;28;19936;-61
2021/06/26 07:02:53;;;;;;;;;;;20.50;99.90;;;;;;5042971;28;19909;-57
2021/06/26 07:05:19;;;;;;;;;;;20.60;99.90;;;;;;5043241;28;20438;-55
2021/06/26 07:07:44;;;;;;;;;;;20.70;99.90;;;;;;5043461;28;19917;-58
2021/06/26 07:10:10;;;;;;;;;;;20.80;99.90;;;;;;5022289;28;19925;-57
2021/06/26 07:12:35;;;;;;;;;;;20.80;99.90;;;;;;5044121;28;20015;-58
2021/06/26 07:15:02;;;;;;;;;;;20.90;99.90;;;;;;5041137;28;20450;-59
2021/06/26 07:17:27;;;;;;;;;;;20.90;99.90;;;;;;5043639;28;19948;-59
2021/06/26 07:19:52;;;;;;;;;;;20.90;99.90;;;;;;5043025;28;20441;-58
2021/06/26 07:22:18;;;;;;;;;;;21.00;99.90;;;;;;5043094;28;19909;-58
2021/06/26 07:24:43;;;;;;;;;;;20.90;99.90;;;;;;5042731;28;20356;-56
2021/06/26 07:27:09;;;;;;;;;;;21.00;99.90;;;;;;5040451;28;19939;-59
2021/06/26 07:29:35;;;;;;;;;;;21.10;99.90;;;;;;5042982;28;19967;-59
2021/06/26 07:32:00;;;;;;;;;;;21.10;99.90;;;;;;5041238;28;19913;-59
2021/06/26 07:34:26;;;;;;;;;;;21.10;99.90;;;;;;5025270;28;20357;-59
2021/06/26 07:36:51;;;;;;;;;;;21.10;99.90;;;;;;5042680;28;19909;-59
2021/06/26 07:39:17;;;;;;;;;;;21.20;99.90;;;;;;5032578;28;19916;-60
2021/06/26 07:41:42;;;;;;;;;;;21.50;99.90;;;;;;5043913;28;19909;-59
2021/06/26 07:44:08;;;;;;;;;;;21.70;99.90;;;;;;5031939;28;20522;-60
2021/06/26 07:46:33;;;;;;;;;;;21.90;99.90;;;;;;5037029;28;19913;-59
2021/06/26 07:48:59;;;;;;;;;;;22.00;99.90;;;;;;5045221;28;20375;-59
2021/06/26 07:51:24;;;;;;;;;;;22.30;99.90;;;;;;5042448;28;19912;-58
2021/06/26 07:53:50;;;;;;;;;;;22.50;99.90;;;;;;5029455;28;20049;-58
2021/06/26 07:56:16;;;;;;;;;;;22.60;99.90;;;;;;5042309;28;20382;-55
2021/06/26 07:58:42;;;;;;;;;;;22.80;99.90;;;;;;5024989;28;19916;-56
2021/06/26 08:01:07;;;;;;;;;;;23.10;99.90;;;;;;5039427;28;19916;-60
2021/06/26 08:03:33;;;;;;;;;;;23.30;99.70;;;;;;5038763;28;19909;-55
2021/06/26 08:05:58;;;;;;;;;;;23.50;99.20;;;;;;5046433;28;19909;-56
2021/06/26 08:08:24;;;;;;;;;;;23.70;97.20;;;;;;5037452;28;20501;-55
2021/06/26 08:10:50;;;;;;;;;;;23.90;97.70;;;;;;5034739;28;20030;-59
2021/06/26 08:13:15;;;;;;;;;;;24.10;96.20;;;;;;5040773;28;19999;-56
2021/06/26 08:15:42;;;;;;;;;;;24.10;98.80;;;;;;5041846;28;19909;-56
2021/06/26 08:18:08;;;;;;;;;;;24.00;95.20;;;;;;5039766;28;19909;-56
2021/06/26 08:20:34;;;;;;;;;;;23.80;97.10;;;;;;5037591;28;20508;-57
2021/06/26 08:23:00;;;;;;;;;;;23.80;97.10;;;;;;5040718;28;19914;-57
2021/06/26 08:25:26;;;;;;;;;;;23.70;98.60;;;;;;5042042;28;19917;-59
2021/06/26 08:27:51;;;;;;;;;;;23.80;98.50;;;;;;5041327;28;19956;-59
2021/06/26 08:30:17;;;;;;;;;;;23.80;98.90;;;;;;5041986;28;19920;-57
2021/06/26 08:32:43;;;;;;;;;;;23.80;98.90;;;;;;5041213;28;19952;-57
2021/06/26 08:35:09;;;;;;;;;;;23.70;98.40;;;;;;5040799;28;19909;-57
2021/06/26 08:37:35;;;;;;;;;;;23.60;98.70;;;;;;5041848;28;19923;-57
2021/06/26 08:40:00;;;;;;;;;;;23.50;96.60;;;;;;5036986;28;19910;-57
2021/06/26 08:42:26;;;;;;;;;;;23.40;96.10;;;;;;5045270;28;20355;-56
2021/06/26 08:44:58;;;;;;;;;;;23.30;97.00;;;;;;5045108;28;19909;-57
2021/06/26 08:47:23;;;;;;;;;;;23.20;95.90;;;;;;5046048;28;20375;-58
2021/06/26 08:49:49;;;;;;;;;;;23.10;96.60;;;;;;5044214;28;19913;-58
2021/06/26 08:52:14;;;;;;;;;;;23.10;97.60;;;;;;5045546;28;20390;-57
2021/06/26 08:54:40;;;;;;;;;;;23.20;96.20;;;;;;5045665;28;19909;-57
2021/06/26 08:57:05;;;;;;;;;;;23.20;96.80;;;;;;5045192;28;20417;-57
2021/06/26 08:59:31;;;;;;;;;;;23.10;95.80;;;;;;5045804;28;19915;-58
2021/06/26 09:01:56;;;;;;;;;;;23.00;97.10;;;;;;5043141;28;19944;-54
2021/06/26 09:04:23;;;;;;;;;;;23.20;95.90;;;;;;5045514;28;20378;-58
2021/06/26 09:06:48;;;;;;;;;;;23.20;96.80;;;;;;5044010;28;20331;-57
2021/06/26 09:09:14;;;;;;;;;;;23.10;96.00;;;;;;5045433;28;20003;-56
2021/06/26 09:11:39;;;;;;;;;;;23.20;97.40;;;;;;5045264;28;19943;-58
2021/06/26 09:14:15;;;;;;;;;;;23.40;97.50;;;;;;5044804;28;19913;-58
2021/06/26 09:16:51;;;;;;;;;;;23.40;98.20;;;;;;5027188;28;19963;-56
2021/06/26 09:19:16;;;;;;;;;;;23.70;98.50;;;;;;5042830;28;19909;-59
2021/06/26 09:21:43;;;;;;;;;;;23.80;97.90;;;;;;5045236;28;20000;-59
2021/06/26 09:24:11;;;;;;;;;;;23.80;96.20;;;;;;5044750;28;19962;-56
2021/06/26 09:26:37;;;;;;;;;;;23.90;97.20;;;;;;5045347;28;20290;-58
2021/06/26 09:29:10;;;;;;;;;;;23.90;96.80;;;;;;5044369;28;19939;-59
2021/06/26 09:31:36;;;;;;;;;;;24.00;97.10;;;;;;5051281;28;19999;-59
2021/06/26 09:34:03;;;;;;;;;;;24.00;95.80;;;;;;5043181;28;19951;-58
2021/06/26 09:36:30;;;;;;;;;;;23.90;96.10;;;;;;5045548;28;19940;-58
2021/06/26 09:39:00;;;;;;;;;;;23.90;97.30;;;;;;5044011;28;20268;-60
2021/06/26 09:41:26;;;;;;;;;;;24.00;96.40;;;;;;5045718;28;20298;-58
2021/06/26 09:43:51;;;;;;;;;;;24.00;96.00;;;;;;5044559;28;20000;-57
2021/06/26 09:46:18;;;;;;;;;;;23.70;96.00;;;;;;5041183;28;19943;-59
2021/06/26 09:48:47;;;;;;;;;;;23.80;96.70;;;;;;5047025;28;19960;-59
2021/06/26 09:51:19;;;;;;;;;;;23.80;96.30;;;;;;5040602;28;19909;-59
2021/06/26 09:53:49;;;;;;;;;;;23.90;96.90;;;;;;5047214;28;20583;-60
2021/06/26 09:56:15;;;;;;;;;;;24.10;97.30;;;;;;5036706;28;19915;-59
2021/06/26 09:58:48;;;;;;;;;;;23.90;94.60;;;;;;5048055;28;20004;-57
2021/06/26 10:01:13;;;;;;;;;;;23.40;95.40;;;;;;5041108;28;20394;-56
2021/06/26 10:03:39;;;;;;;;;;;23.70;96.80;;;;;;5041078;28;19909;-56
2021/06/26 10:06:05;;;;;;;;;;;24.00;96.10;;;;;;5047674;28;19919;-57
2021/06/26 10:08:32;;;;;;;;;;;23.90;95.80;;;;;;5040541;28;20008;-57
2021/06/26 10:10:59;;;;;;;;;;;24.20;96.80;;;;;;5047538;28;19931;-58
2021/06/26 10:13:25;;;;;;;;;;;24.30;95.30;;;;;;5040746;28;19909;-55
2021/06/26 10:15:50;;;;;;;;;;;24.50;96.00;;;;;;5048619;28;20420;-56
2021/06/26 10:18:16;;;;;;;;;;;24.60;97.70;;;;;;5040306;28;19932;-55
2021/06/26 10:20:43;;;;;;;;;;;24.70;96.10;;;;;;5040555;28;19995;-58
2021/06/26 10:23:08;;;;;;;;;;;24.90;94.60;;;;;;5043178;28;19909;-58
2021/06/26 10:25:35;;;;;;;;;;;24.80;93.80;;;;;;5045731;28;19916;-57
2021/06/26 10:28:01;;;;;;;;;;;25.00;94.50;;;;;;5042116;28;19909;-58
2021/06/26 10:30:27;;;;;;;;;;;25.20;94.80;;;;;;5043818;28;19909;-58
2021/06/26 10:32:54;;;;;;;;;;;25.50;93.20;;;;;;5041355;28;19919;-58
2021/06/26 10:35:20;;;;;;;;;;;25.40;94.20;;;;;;5043662;28;19955;-59
2021/06/26 10:37:46;;;;;;;;;;;25.40;93.80;;;;;;5043189;28;19913;-59
2021/06/26 10:40:12;;;;;;;;;;;25.40;93.90;;;;;;5043146;28;19909;-58
2021/06/26 10:42:39;;;;;;;;;;;25.40;93.40;;;;;;5045041;28;20365;-60
2021/06/26 10:45:06;;;;;;;;;;;25.40;92.90;;;;;;5041880;28;19909;-58
2021/06/26 10:47:35;;;;;;;;;;;25.20;93.30;;;;;;5043503;28;20383;-60
2021/06/26 10:50:20;;;;;;;;;;;25.10;94.40;;;;;;5041410;28;19919;-61
2021/06/26 10:52:56;;;;;;;;;;;25.10;93.30;;;;;;5042701;28;19912;-61
2021/06/26 10:55:32;;;;;;;;;;;25.30;92.90;;;;;;5034151;28;20379;-65
2021/06/26 10:57:58;;;;;;;;;;;25.50;93.50;;;;;;5043647;28;19956;-61
2021/06/26 11:00:32;;;;;;;;;;;25.50;93.40;;;;;;5025710;28;19919;-64
2021/06/26 11:02:57;;;;;;;;;;;25.20;92.20;;;;;;5042287;28;19915;-60
2021/06/26 11:05:30;;;;;;;;;;;24.80;93.50;;;;;;5041563;28;19909;-60
2021/06/26 11:07:56;;;;;;;;;;;24.90;93.50;;;;;;5042645;28;19917;-60
2021/06/26 11:10:22;;;;;;;;;;;25.20;95.30;;;;;;5042811;28;19939;-60
2021/06/26 11:12:49;;;;;;;;;;;25.30;93.70;;;;;;5081717;22;20014;-51
2021/06/26 11:15:16;;;;;;;;;;;25.30;92.20;;;;;;5062099;28;19954;-53
2021/06/26 11:17:42;;;;;;;;;;;25.40;91.80;;;;;;5063242;28;20371;-52
2021/06/26 11:20:12;;;;;;;;;;;25.40;91.80;;;;;;5042598;28;19913;-53
2021/06/26 11:22:38;;;;;;;;;;;24.90;92.20;;;;;;5074389;28;20294;-56
2021/06/26 11:25:04;;;;;;;;;;;24.70;92.30;;;;;;5087615;28;19915;-55
2021/06/26 11:27:30;;;;;;;;;;;24.50;92.80;;;;;;5079837;28;20007;-56
2021/06/26 11:30:00;;;;;;;;;;;24.70;93.20;;;;;;5080282;28;20008;-55
2021/06/26 11:32:26;;;;;;;;;;;24.50;91.80;;;;;;5065971;28;19916;-50
2021/06/26 11:35:01;;;;;;;;;;;24.30;92.90;;;;;;5079537;28;19909;-55
2021/06/26 11:37:34;;;;;;;;;;;24.60;94.50;;;;;;5084767;28;19919;-55
2021/06/26 11:40:00;;;;;;;;;;;24.70;94.40;;;;;;5062412;28;19912;-48
2021/06/26 11:42:26;;;;;;;;;;;25.00;94.90;;;;;;5085744;28;19912;-51
2021/06/26 11:44:52;;;;;;;;;;;25.20;93.60;;;;;;5079162;28;20394;-52
2021/06/26 11:47:18;;;;;;;;;;;25.30;92.00;;;;;;5082784;28;19908;-52
2021/06/26 11:49:46;;;;;;;;;;;25.60;92.40;;;;;;5081340;28;19919;-49
2021/06/26 11:52:13;;;;;;;;;;;25.70;91.00;;;;;;5081827;28;19953;-49
2021/06/26 11:54:39;;;;;;;;;;;25.80;91.80;;;;;;5082854;28;19908;-54
2021/06/26 11:57:06;;;;;;;;;;;25.60;92.10;;;;;;5081310;28;20460;-53
2021/06/26 11:59:42;;;;;;;;;;;25.20;91.30;;;;;;5085093;28;20287;-51
2021/06/26 12:02:08;;;;;;;;;;;25.30;92.90;;;;;;5081275;28;19912;-49
2021/06/26 12:04:33;;;;;;;;;;;24.90;91.50;;;;;;5082317;28;19928;-52
2021/06/26 12:06:59;;;;;;;;;;;24.70;93.40;;;;;;5080258;28;20453;-54
2021/06/26 12:09:25;;;;;;;;;;;24.90;92.70;;;;;;5082388;28;19988;-52
2021/06/26 12:11:51;;;;;;;;;;;25.00;93.40;;;;;;5080964;28;19970;-51
2021/06/26 12:14:24;;;;;;;;;;;25.10;92.20;;;;;;5064381;28;19908;-55
2021/06/26 12:16:52;;;;;;;;;;;25.00;91.60;;;;;;5081453;28;19916;-53
2021/06/26 12:19:27;;;;;;;;;;;25.10;92.90;;;;;;5064163;28;19908;-53
2021/06/26 12:21:53;;;;;;;;;;;25.10;92.20;;;;;;5081794;28;20394;-48
2021/06/26 12:24:25;;;;;;;;;;;25.20;91.00;;;;;;5082357;28;19963;-52
2021/06/26 12:27:00;;;;;;;;;;;24.60;91.70;;;;;;5064155;28;20289;-52
2021/06/26 12:29:26;;;;;;;;;;;24.70;92.50;;;;;;5078746;28;19912;-51
2021/06/26 12:31:51;;;;;;;;;;;24.90;91.70;;;;;;5085060;28;19915;-51
2021/06/26 12:34:17;;;;;;;;;;;24.90;92.40;;;;;;5078316;28;19908;-53
2021/06/26 12:36:50;;;;;;;;;;;25.10;93.40;;;;;;5084537;28;20350;-52
2021/06/26 12:39:19;;;;;;;;;;;25.20;91.90;;;;;;5076152;28;20007;-49
2021/06/26 12:41:45;;;;;;;;;;;25.20;91.90;;;;;;5086057;28;19912;-53
2021/06/26 12:44:17;;;;;;;;;;;25.20;92.00;;;;;;5078958;28;19915;-51
2021/06/26 12:46:43;;;;;;;;;;;25.20;91.70;;;;;;5073994;28;19908;-52
2021/06/26 12:49:17;;;;;;;;;;;25.00;91.60;;;;;;5084758;28;19916;-58
2021/06/26 12:51:46;;;;;;;;;;;25.00;92.50;;;;;;5078170;28;19909;-53
2021/06/26 12:54:13;;;;;;;;;;;25.00;91.90;;;;;;5085764;28;19908;-52
2021/06/26 12:56:42;;;;;;;;;;;24.60;92.40;;;;;;5078468;28;19999;-53
2021/06/26 12:59:08;;;;;;;;;;;24.50;92.90;;;;;;5086786;28;19915;-53
2021/06/26 13:01:34;;;;;;;;;;;24.60;93.10;;;;;;5078138;28;19909;-49
2021/06/26 13:04:00;;;;;;;;;;;24.70;93.50;;;;;;5079615;28;19909;-48
2021/06/26 13:06:25;;;;;;;;;;;24.90;94.00;;;;;;5082912;28;19912;-54
2021/06/26 13:08:52;;;;;;;;;;;25.10;93.20;;;;;;5078174;28;19919;-55
2021/06/26 13:11:32;;;;;;;;;;;24.80;92.20;;;;;;5084941;28;19912;-56
2021/06/26 13:14:01;;;;;;;;;;;24.90;93.40;;;;;;5076749;28;19936;-50
2021/06/26 13:16:26;;;;;;;;;;;24.60;92.00;;;;;;5084570;28;20003;-53
2021/06/26 13:18:52;;;;;;;;;;;24.80;93.30;;;;;;5078220;28;19955;-49
2021/06/26 13:21:18;;;;;;;;;;;24.80;92.10;;;;;;5081590;28;20336;-51
2021/06/26 13:23:43;;;;;;;;;;;24.90;92.80;;;;;;5081574;28;19916;-57
2021/06/26 13:26:09;;;;;;;;;;;25.00;92.50;;;;;;5081199;28;19908;-53
2021/06/26 13:28:34;;;;;;;;;;;25.00;93.00;;;;;;5083795;28;19916;-55
2021/06/26 13:31:00;;;;;;;;;;;24.90;93.00;;;;;;5083176;28;20021;-56
2021/06/26 13:33:25;;;;;;;;;;;24.60;92.40;;;;;;5085276;28;20419;-56
2021/06/26 13:35:51;;;;;;;;;;;24.70;92.30;;;;;;5083696;28;19908;-51
2021/06/26 13:38:17;;;;;;;;;;;24.60;91.60;;;;;;5085233;28;19908;-50
2021/06/26 13:40:49;;;;;;;;;;;24.60;92.90;;;;;;5084500;28;19915;-54
2021/06/26 13:43:15;;;;;;;;;;;24.70;93.50;;;;;;5085126;28;20226;-54
2021/06/26 13:45:40;;;;;;;;;;;24.80;92.60;;;;;;5084759;28;20324;-55
2021/06/26 13:48:06;;;;;;;;;;;24.90;92.60;;;;;;5083067;28;19908;-52
2021/06/26 13:50:31;;;;;;;;;;;24.90;93.60;;;;;;5084922;28;20394;-54
2021/06/26 13:52:57;;;;;;;;;;;24.90;92.80;;;;;;5083662;28;19919;-56
2021/06/26 13:55:22;;;;;;;;;;;24.90;92.50;;;;;;5085586;28;20294;-58
2021/06/26 13:57:48;;;;;;;;;;;24.90;92.20;;;;;;5085391;28;19969;-55
2021/06/26 14:00:13;;;;;;;;;;;25.00;91.70;;;;;;5085252;28;19935;-55
2021/06/26 14:02:39;;;;;;;;;;;25.10;92.80;;;;;;5084917;28;20003;-54
2021/06/26 14:05:04;;;;;;;;;;;25.20;90.90;;;;;;5082332;28;19912;-53
2021/06/26 14:07:30;;;;;;;;;;;25.20;92.10;;;;;;5084742;28;19983;-50
2021/06/26 14:09:55;;;;;;;;;;;25.30;92.00;;;;;;5083575;28;19912;-53